Time;durP1;ratioP1;P1;durP2;ratioP2;P2;SDS_P1;SDS_P2;PMS_P1;PMS_P2;Temp;Humidity;BMP_temperature;BMP_pressure;BME280_temperature;BME280_humidity;BME280_pressure;Samples;Min_cycle;Max_cycle;Signal;HPM_P1;HPM_P2
2021/12/26 00:00:25;;;;;;;3.47;1.77;;;;;;;;;;5049840;28;20043;-67
2021/12/26 00:02:51;;;;;;;4.68;2.00;;;;;;;;;;5050492;28;20091;-66
2021/12/26 00:05:17;;;;;;;4.45;2.08;;;;;;;;;;5049861;28;20053;-67
2021/12/26 00:07:43;;;;;;;4.38;1.65;;;;;;;;;;5051587;28;20138;-67
2021/12/26 00:10:12;;;;;;;2.50;1.70;;;-4.20;99.90;;;;;;5050602;28;20140;-66
2021/12/26 00:12:38;;;;;;;5.53;2.00;;;;;;;;;;5033574;28;20037;-66
2021/12/26 00:15:05;;;;;;;2.13;1.70;;;;;;;;;;5051094;28;20048;-67
2021/12/26 00:17:31;;;;;;;3.65;1.58;;;;;;;;;;5049727;28;20132;-66
2021/12/26 00:22:22;;;;;;;7.78;2.58;;;;;;;;;;5048945;22;20045;-74
2021/12/26 00:24:49;;;;;;;3.50;1.77;;;;;;;;;;4997815;28;20041;-74
2021/12/26 00:27:16;;;;;;;5.72;2.30;;;;;;;;;;5014109;28;20045;-74
2021/12/26 00:29:42;;;;;;;3.83;1.90;;;;;;;;;;5013716;28;20049;-74
2021/12/26 00:32:08;;;;;;;4.15;2.30;;;;;;;;;;4996125;28;20041;-73
2021/12/26 00:34:35;;;;;;;4.28;2.25;;;;;;;;;;4978408;28;20042;-74
2021/12/26 00:37:01;;;;;;;5.15;2.10;;;;;;;;;;4994395;28;20068;-74
2021/12/26 00:39:27;;;;;;;4.53;1.88;;;;;;;;;;4993974;28;20480;-74
2021/12/26 00:41:53;;;;;;;4.22;1.75;;;-4.10;99.90;;;;;;4994075;28;20046;-74
2021/12/26 00:44:19;;;;;;;6.10;2.15;;;;;;;;;;4977898;28;20169;-73
2021/12/26 00:46:45;;;;;;;4.72;1.80;;;;;;;;;;4994062;28;20064;-73
2021/12/26 00:49:11;;;;;;;3.00;1.73;;;;;;;;;;4993880;28;20132;-73
2021/12/26 00:51:37;;;;;;;4.00;2.33;;;;;;;;;;4993816;28;20505;-74
2021/12/26 00:54:03;;;;;;;5.80;1.90;;;;;;;;;;4993815;28;20042;-73
2021/12/26 00:56:29;;;;;;;4.03;1.67;;;;;;;;;;4993993;28;20436;-75
2021/12/26 00:58:55;;;;;;;3.42;1.60;;;;;;;;;;4994206;28;20038;-75
2021/12/26 01:01:21;;;;;;;3.10;1.40;;;;;;;;;;4994115;28;20038;-74
2021/12/26 01:03:47;;;;;;;7.60;1.80;;;;;;;;;;4977827;28;20497;-74
2021/12/26 01:06:13;;;;;;;3.15;2.00;;;;;;;;;;4994238;28;20061;-74
2021/12/26 01:08:42;;;;;;;3.80;1.58;;;;;;;;;;4993986;28;20125;-74
2021/12/26 01:11:22;;;;;;;3.47;1.70;;;-4.50;99.90;;;;;;4977645;28;20038;-74
2021/12/26 01:13:49;;;;;;;3.03;1.83;;;-4.30;99.90;;;;;;4978061;28;20078;-75
2021/12/26 01:16:16;;;;;;;2.50;1.80;;;;;;;;;;4993971;28;20046;-74
2021/12/26 01:18:46;;;;;;;5.22;1.90;;;-4.30;99.90;;;;;;4994222;28;20445;-74
2021/12/26 01:21:18;;;;;;;6.00;2.08;;;-4.30;99.90;;;;;;4994828;28;20533;-74
2021/12/26 01:23:50;;;;;;;4.30;1.67;;;-4.30;99.90;;;;;;4997773;28;20045;-74
2021/12/26 01:26:17;;;;;;;4.50;1.80;;;;;;;;;;4997668;28;20057;-75
2021/12/26 01:28:43;;;;;;;2.58;1.48;;;;;;;;;;4996791;28;20087;-74
2021/12/26 01:31:09;;;;;;;4.10;1.48;;;;;;;;;;4997226;28;20099;-75
2021/12/26 01:33:35;;;;;;;2.80;1.42;;;;;;;;;;4997287;28;20124;-74
2021/12/26 01:36:02;;;;;;;4.07;1.80;;;;;;;;;;4997039;28;20038;-74
2021/12/26 01:38:28;;;;;;;3.25;1.65;;;;;;;;;;4997325;28;20399;-74
2021/12/26 01:40:55;;;;;;;4.72;1.85;;;;;;;;;;4996881;28;20045;-74
2021/12/26 01:43:29;;;;;;;3.63;1.88;;;-4.50;99.90;;;;;;4997041;28;20044;-74
2021/12/26 01:45:55;;;;;;;5.28;1.90;;;;;;;;;;4997066;28;20038;-74
2021/12/26 01:48:22;;;;;;;6.28;1.55;;;;;;;;;;4980904;28;20124;-74
2021/12/26 01:50:49;;;;;;;3.20;1.42;;;-4.30;99.90;;;;;;4996465;28;20057;-73
2021/12/26 01:53:16;;;;;;;4.20;1.70;;;;;;;;;;4996955;28;20124;-74
2021/12/26 01:55:44;;;;;;;2.85;1.73;;;;;;;;;;4996791;28;20049;-74
2021/12/26 01:58:18;;;;;;;5.32;1.63;;;;;;;;;;4996840;28;20049;-74
2021/12/26 02:00:47;;;;;;;3.50;1.67;;;-4.30;99.90;;;;;;4980058;28;20038;-74
2021/12/26 02:03:14;;;;;;;4.57;2.55;;;;;;;;;;4996973;28;20042;-75
2021/12/26 02:05:40;;;;;;;2.75;1.65;;;;;;;;;;4996518;28;20048;-74
2021/12/26 02:08:07;;;;;;;6.97;1.88;;;-4.40;99.90;;;;;;4996647;28;20073;-74
2021/12/26 02:10:33;;;;;;;2.78;1.58;;;;;;;;;;4996221;28;20069;-73
2021/12/26 02:12:59;;;;;;;5.70;1.83;;;;;;;;;;4996659;28;20077;-74
2021/12/26 02:15:25;;;;;;;3.97;1.50;;;;;;;;;;4996574;28;20108;-75
2021/12/26 02:17:51;;;;;;;2.97;1.85;;;;;;;;;;4996332;28;20038;-75
2021/12/26 02:20:49;;;;;;;4.63;1.90;;;-4.50;99.90;;;;;;4996057;28;20866;-75
2021/12/26 02:28:43;;;;;;;2.35;1.60;;;-4.30;99.90;;;;;;4996293;28;20081;-74
2021/12/26 02:31:09;;;;;;;3.40;1.92;;;;;;;;;;4979881;28;20620;-74
2021/12/26 02:33:36;;;;;;;5.20;1.75;;;;;;;;;;4979613;28;20042;-75
2021/12/26 02:36:02;;;;;;;4.00;1.65;;;;;;;;;;4995923;28;20045;-74
2021/12/26 02:38:28;;;;;;;5.40;1.52;;;;;;;;;;4979886;28;20041;-74
2021/12/26 02:40:56;;;;;;;4.82;1.90;;;-4.40;99.90;;;;;;4995649;28;20106;-75
2021/12/26 02:43:23;;;;;;;3.83;1.85;;;;;;;;;;4996138;28;20121;-74
2021/12/26 02:45:49;;;;;;;2.65;1.67;;;;;;;;;;4996083;28;20042;-73
2021/12/26 02:48:15;;;;;;;1.60;1.27;;;;;;;;;;4995861;28;20057;-74
2021/12/26 02:50:42;;;;;;;5.55;1.70;;;;;;;;;;4995595;28;20045;-74
2021/12/26 02:53:09;;;;;;;4.78;2.10;;;;;;;;;;4996148;28;20131;-74
2021/12/26 02:55:35;;;;;;;5.80;1.45;;;;;;;;;;4979115;28;20050;-75
2021/12/26 02:58:04;;;;;;;3.17;1.52;;;;;;;;;;4995757;28;20034;-75
2021/12/26 03:00:31;;;;;;;3.55;1.35;;;;;;;;;;4995247;28;20055;-75
2021/12/26 03:03:00;;;;;;;3.42;1.70;;;;;;;;;;5006288;28;20038;-74
2021/12/26 03:05:27;;;;;;;2.70;1.80;;;;;;;;;;4994658;28;20056;-74
2021/12/26 03:07:54;;;;;;;5.55;2.13;;;;;;;;;;5012347;28;20413;-74
2021/12/26 03:10:24;;;;;;;2.17;1.45;;;-4.40;99.90;;;;;;5011948;28;20038;-74
2021/12/26 03:12:55;;;;;;;3.08;1.95;;;-4.40;99.90;;;;;;5012732;28;20050;-74
2021/12/26 03:15:22;;;;;;;2.10;1.25;;;-4.40;99.90;;;;;;5000952;28;20092;-74
2021/12/26 03:17:48;;;;;;;3.85;1.85;;;;;;;;;;4995200;28;20042;-74
2021/12/26 03:20:18;;;;;;;3.95;1.65;;;-4.40;99.90;;;;;;4995136;28;20041;-74
2021/12/26 03:22:44;;;;;;;4.60;1.75;;;;;;;;;;4979698;28;20068;-74
2021/12/26 03:25:20;;;;;;;6.57;2.30;;;;;;;;;;4979412;28;20038;-74
2021/12/26 03:27:47;;;;;;;3.95;1.50;;;;;;;;;;4995037;28;20096;-74
2021/12/26 03:30:15;;;;;;;2.38;1.42;;;-4.50;99.90;;;;;;4994684;28;20045;-74
2021/12/26 03:32:41;;;;;;;2.03;1.30;;;;;;;;;;4978559;28;20050;-74
2021/12/26 03:35:08;;;;;;;3.10;1.48;;;-4.50;99.90;;;;;;4979162;28;20046;-74
2021/12/26 03:37:34;;;;;;;3.05;1.60;;;-4.30;99.90;;;;;;4994688;28;20512;-73
2021/12/26 03:40:00;;;;;;;2.20;1.45;;;;;;;;;;4994733;28;20029;-74
2021/12/26 03:42:27;;;;;;;3.85;1.45;;;;;;;;;;4978792;28;20037;-74
2021/12/26 03:44:53;;;;;;;2.50;2.03;;;;;;;;;;4978220;28;20049;-74
2021/12/26 03:47:19;;;;;;;1.58;1.17;;;;;;;;;;4994770;28;20042;-74
2021/12/26 03:49:47;;;;;;;6.20;1.50;;;;;;;;;;4994549;28;20044;-75
2021/12/26 03:52:13;;;;;;;4.32;1.35;;;;;;;;;;4994803;28;20053;-75
2021/12/26 03:54:39;;;;;;;3.30;1.65;;;;;;;;;;4994862;28;20505;-74
2021/12/26 03:57:05;;;;;;;2.55;1.30;;;;;;;;;;4994767;28;20064;-75
2021/12/26 03:59:31;;;;;;;1.75;1.20;;;;;;;;;;4994510;28;20038;-74
2021/12/26 04:01:58;;;;;;;2.45;1.40;;;;;;;;;;4994695;28;20494;-74
2021/12/26 04:04:24;;;;;;;1.90;1.42;;;;;;;;;;4994825;28;20505;-74
2021/12/26 04:06:50;;;;;;;3.55;1.73;;;;;;;;;;4994436;28;20061;-74
2021/12/26 04:09:16;;;;;;;3.85;1.50;;;;;;;;;;4994546;28;20413;-74
2021/12/26 04:11:44;;;;;;;6.22;2.45;;;;;;;;;;4994990;28;20451;-74
2021/12/26 04:14:11;;;;;;;4.40;2.10;;;;;;;;;;4994770;28;20390;-75
2021/12/26 04:16:37;;;;;;;2.72;1.27;;;;;;;;;;4994401;28;20573;-74
2021/12/26 04:19:03;;;;;;;3.28;1.52;;;;;;;;;;4978277;28;20120;-74
2021/12/26 04:21:29;;;;;;;4.47;1.88;;;;;;;;;;4994358;28;20045;-74
2021/12/26 04:23:54;;;;;;;3.78;1.55;;;-4.70;99.90;;;;;;4994576;28;20038;-75
2021/12/26 04:26:20;;;;;;;4.18;1.50;;;;;;;;;;4994718;28;20540;-74
2021/12/26 04:28:46;;;;;;;2.72;1.60;;;;;;;;;;4994474;28;20080;-74
2021/12/26 04:31:12;;;;;;;3.28;1.90;;;;;;;;;;4994175;28;20045;-74
2021/12/26 04:33:39;;;;;;;3.58;1.50;;;;;;;;;;4994340;28;20042;-74
2021/12/26 04:36:05;;;;;;;3.72;1.48;;;;;;;;;;4994407;28;20215;-74
2021/12/26 04:38:31;;;;;;;2.95;1.88;;;;;;;;;;4994599;28;20042;-74
2021/12/26 04:40:57;;;;;;;3.20;1.65;;;;;;;;;;4978130;28;20038;-74
2021/12/26 04:43:25;;;;;;;5.95;1.83;;;;;;;;;;4994493;28;20034;-73
2021/12/26 04:45:51;;;;;;;2.78;1.25;;;;;;;;;;4978031;28;20042;-74
2021/12/26 04:48:17;;;;;;;3.72;1.45;;;;;;;;;;4994270;28;20073;-74
2021/12/26 04:50:44;;;;;;;1.67;1.23;;;;;;;;;;4993833;28;20046;-74
2021/12/26 04:53:10;;;;;;;3.60;1.30;;;;;;;;;;4994157;28;20046;-74
2021/12/26 04:55:36;;;;;;;3.55;1.65;;;;;;;;;;4996078;28;20046;-74
2021/12/26 04:58:02;;;;;;;3.97;1.27;;;;;;;;;;4997894;28;20073;-74
2021/12/26 05:00:30;;;;;;;3.38;1.50;;;-4.80;99.90;;;;;;4997053;28;20049;-73
2021/12/26 05:02:59;;;;;;;8.13;1.90;;;-4.90;99.90;;;;;;4997542;28;20088;-74
2021/12/26 05:05:28;;;;;;;4.63;1.75;;;-4.70;99.90;;;;;;4981707;28;20046;-74
2021/12/26 05:07:54;;;;;;;1.80;1.30;;;;;;;;;;4997395;28;20064;-74
2021/12/26 05:10:24;;;;;;;4.68;1.77;;;-4.80;99.90;;;;;;4997136;28;20052;-74
2021/12/26 05:12:50;;;;;;;3.38;1.50;;;;;;;;;;4997243;28;20081;-74
2021/12/26 05:15:16;;;;;;;2.47;1.42;;;;;;;;;;4997586;28;20042;-74
2021/12/26 05:17:43;;;;;;;4.30;2.22;;;;;;;;;;4997706;28;20037;-74
2021/12/26 05:20:10;;;;;;;4.95;1.70;;;-4.80;99.90;;;;;;4997381;28;20072;-74
2021/12/26 05:22:36;;;;;;;4.95;1.50;;;;;;;;;;4997525;28;20041;-74
2021/12/26 05:25:03;;;;;;;2.60;1.40;;;;;;;;;;4997625;28;20080;-74
2021/12/26 05:27:29;;;;;;;3.15;1.63;;;;;;;;;;4981225;28;20401;-74
2021/12/26 05:29:55;;;;;;;3.78;1.77;;;;;;;;;;4981194;28;20124;-74
2021/12/26 05:32:21;;;;;;;3.42;2.38;;;;;;;;;;4997677;28;20133;-74
2021/12/26 05:34:47;;;;;;;2.63;1.70;;;;;;;;;;4997113;28;20037;-74
2021/12/26 05:37:13;;;;;;;2.65;1.38;;;;;;;;;;4997148;28;20041;-74
2021/12/26 05:39:39;;;;;;;3.10;1.48;;;;;;;;;;4997189;28;20084;-74
2021/12/26 05:42:05;;;;;;;2.47;1.58;;;;;;;;;;4997079;28;20534;-74
2021/12/26 05:44:31;;;;;;;4.88;1.83;;;;;;;;;;4997283;28;20088;-74
2021/12/26 05:46:57;;;;;;;4.93;1.80;;;;;;;;;;4997333;28;20049;-74
2021/12/26 05:49:23;;;;;;;5.78;1.77;;;;;;;;;;4996721;28;20405;-73
2021/12/26 05:51:49;;;;;;;2.85;2.05;;;;;;;;;;4996921;28;20042;-74
2021/12/26 05:54:15;;;;;;;3.50;2.08;;;;;;;;;;4996868;28;20100;-74
2021/12/26 05:56:41;;;;;;;2.92;1.80;;;;;;;;;;4996742;28;20048;-73
2021/12/26 05:59:07;;;;;;;2.85;1.65;;;;;;;;;;4997007;28;20070;-74
2021/12/26 06:01:33;;;;;;;2.85;1.70;;;;;;;;;;4996871;28;20286;-74
2021/12/26 06:03:59;;;;;;;4.13;2.05;;;;;;;;;;4996750;28;20056;-74
2021/12/26 06:06:25;;;;;;;3.70;1.80;;;;;;;;;;4996251;28;20417;-74
2021/12/26 06:08:51;;;;;;;2.78;1.80;;;;;;;;;;4996338;28;20050;-74
2021/12/26 06:11:17;;;;;;;3.97;2.03;;;;;;;;;;4980387;28;20088;-74
2021/12/26 06:13:43;;;;;;;4.82;1.80;;;;;;;;;;4996667;28;20048;-74
2021/12/26 06:16:09;;;;;;;3.35;1.85;;;;;;;;;;4980163;28;20121;-73
2021/12/26 06:18:35;;;;;;;5.03;1.98;;;;;;;;;;4980089;28;20038;-73
2021/12/26 06:21:01;;;;;;;2.47;1.83;;;;;;;;;;5048041;23;20049;-66
2021/12/26 06:23:27;;;;;;;2.75;1.60;;;;;;;;;;5051952;28;20128;-66
2021/12/26 06:25:53;;;;;;;2.03;1.40;;;;;;;;;;5051525;28;20037;-69
2021/12/26 06:28:18;;;;;;;3.35;2.17;;;;;;;;;;5035142;28;20071;-66
2021/12/26 06:30:44;;;;;;;4.85;2.30;;;;;;;;;;5048439;28;20049;-66
2021/12/26 06:33:10;;;;;;;2.38;1.60;;;;;;;;;;5031560;28;20187;-66
2021/12/26 06:35:37;;;;;;;2.70;2.17;;;;;;;;;;5031788;28;20045;-66
2021/12/26 06:38:03;;;;;;;4.43;2.03;;;;;;;;;;5034682;28;20049;-66
2021/12/26 06:40:29;;;;;;;5.75;2.28;;;;;;;;;;5032185;28;20034;-66
2021/12/26 06:42:54;;;;;;;4.18;2.65;;;;;;;;;;5031649;28;20408;-66
2021/12/26 06:45:20;;;;;;;4.00;2.72;;;;;;;;;;5014884;28;20145;-66
2021/12/26 06:47:51;;;;;;;4.18;2.08;;;;;;;;;;5031511;28;20041;-67
2021/12/26 06:50:17;;;;;;;3.97;2.10;;;;;;;;;;5032515;28;20116;-66
2021/12/26 06:52:43;;;;;;;4.20;2.10;;;;;;;;;;5032677;28;20095;-67
2021/12/26 06:55:10;;;;;;;5.90;2.42;;;;;;;;;;5032510;28;20037;-66
2021/12/26 06:57:36;;;;;;;3.88;2.33;;;;;;;;;;5031268;28;20084;-66
2021/12/26 07:00:04;;;;;;;4.43;2.20;;;;;;;;;;5032051;28;20483;-69
2021/12/26 07:02:30;;;;;;;5.55;2.30;;;;;;;;;;5031191;28;20417;-66
2021/12/26 07:04:56;;;;;;;2.92;2.15;;;;;;;;;;5032427;28;20042;-67
2021/12/26 07:07:22;;;;;;;3.20;2.05;;;;;;;;;;5030937;28;20124;-66
2021/12/26 07:09:48;;;;;;;3.95;2.22;;;;;;;;;;5031968;28;20045;-66
2021/12/26 07:12:14;;;;;;;4.43;2.55;;;;;;;;;;5032112;28;20048;-66
2021/12/26 07:14:41;;;;;;;7.50;2.10;;;;;;;;;;5031063;28;20049;-67
2021/12/26 07:17:07;;;;;;;4.43;2.60;;;;;;;;;;5030667;28;20037;-67
2021/12/26 07:19:33;;;;;;;3.55;2.08;;;;;;;;;;5029463;28;20124;-66
2021/12/26 07:21:59;;;;;;;5.60;2.05;;;;;;;;;;5030739;28;20167;-66
2021/12/26 07:24:25;;;;;;;4.28;2.25;;;;;;;;;;5032108;28;20098;-66
2021/12/26 07:26:51;;;;;;;4.47;2.42;;;;;;;;;;5032006;28;20041;-67
2021/12/26 07:29:17;;;;;;;5.40;2.63;;;;;;;;;;5030252;28;20159;-66
2021/12/26 07:31:43;;;;;;;4.82;2.22;;;;;;;;;;5031721;28;20049;-67
2021/12/26 07:34:09;;;;;;;4.15;2.50;;;;;;;;;;5014024;28;20049;-67
2021/12/26 07:36:34;;;;;;;4.85;2.50;;;;;;;;;;5031628;28;20041;-67
2021/12/26 07:39:01;;;;;;;4.80;2.47;;;;;;;;;;5031438;28;20040;-70
2021/12/26 07:41:26;;;;;;;5.15;2.72;;;;;;;;;;5030224;28;20073;-66
2021/12/26 07:43:52;;;;;;;5.70;2.63;;;;;;;;;;5030638;28;20073;-66
2021/12/26 07:46:19;;;;;;;5.18;2.90;;;;;;;;;;5030196;28;20045;-66
2021/12/26 07:48:45;;;;;;;4.28;2.33;;;;;;;;;;5030284;28;20136;-66
2021/12/26 07:51:11;;;;;;;6.45;3.20;;;;;;;;;;5029972;28;20041;-66
2021/12/26 07:53:37;;;;;;;5.00;2.50;;;;;;;;;;5030498;28;20124;-66
2021/12/26 07:56:03;;;;;;;5.80;2.67;;;;;;;;;;5030507;28;20124;-66
2021/12/26 07:58:29;;;;;;;6.60;3.17;;;;;;;;;;5031417;28;20065;-66
2021/12/26 08:00:55;;;;;;;5.50;2.80;;;;;;;;;;5029844;28;20037;-67
2021/12/26 08:03:21;;;;;;;4.50;2.65;;;;;;;;;;5013658;28;20107;-67
2021/12/26 08:05:47;;;;;;;5.88;3.13;;;;;;;;;;5030137;28;20045;-66
2021/12/26 08:08:13;;;;;;;3.88;2.47;;;;;;;;;;5030066;28;20041;-66
2021/12/26 08:10:39;;;;;;;5.55;2.70;;;;;;;;;;5030034;28;20072;-67
2021/12/26 08:13:05;;;;;;;3.80;2.50;;;;;;;;;;5029957;28;20080;-66
2021/12/26 08:15:31;;;;;;;5.47;3.00;;;;;;;;;;5029913;28;20061;-67
2021/12/26 08:17:57;;;;;;;4.85;2.90;;;;;;;;;;5029902;28;20037;-67
2021/12/26 08:20:23;;;;;;;6.75;2.85;;;;;;;;;;5013333;28;20042;-67
2021/12/26 08:22:49;;;;;;;6.72;3.10;;;;;;;;;;5031007;28;20064;-68
2021/12/26 08:25:15;;;;;;;6.97;2.88;;;;;;;;;;5030163;28;20476;-69
2021/12/26 08:27:41;;;;;;;4.45;2.70;;;;;;;;;;5029908;28;20519;-68
2021/12/26 08:30:08;;;;;;;6.22;3.35;;;-4.60;99.90;;;;;;5030936;28;20050;-70
2021/12/26 08:32:37;;;;;;;4.20;2.80;;;;;;;;;;5017425;28;20042;-67
2021/12/26 08:35:06;;;;;;;6.70;3.00;;;;;;;;;;5036385;28;20099;-66
2021/12/26 08:37:32;;;;;;;5.13;3.33;;;;;;;;;;5036558;28;20049;-68
2021/12/26 08:39:58;;;;;;;7.40;2.70;;;;;;;;;;5033972;28;20041;-68
2021/12/26 08:42:24;;;;;;;3.65;2.30;;;;;;;;;;5033579;28;20041;-69
2021/12/26 08:44:52;;;;;;;4.40;2.33;;;;;;;;;;5034001;28;20444;-66
2021/12/26 08:47:18;;;;;;;5.25;2.70;;;;;;;;;;5033585;28;20049;-66
2021/12/26 08:49:44;;;;;;;6.93;2.92;;;;;;;;;;5034524;28;20373;-67
2021/12/26 08:52:10;;;;;;;9.23;2.80;;;;;;;;;;5033467;28;20048;-66
2021/12/26 08:54:37;;;;;;;6.50;3.25;;;;;;;;;;5033449;28;20037;-67
2021/12/26 08:57:03;;;;;;;5.03;2.70;;;;;;;;;;5032507;28;20045;-70
2021/12/26 08:59:30;;;;;;;5.47;2.60;;;;;;;;;;5034304;28;20042;-67
2021/12/26 09:02:02;;;;;;;5.50;3.08;;;;;;;;;;5033256;28;20455;-66
2021/12/26 09:04:28;;;;;;;5.28;3.05;;;;;;;;;;5033261;28;20407;-66
2021/12/26 09:06:54;;;;;;;4.40;2.83;;;;;;;;;;5033240;28;20522;-66
2021/12/26 09:09:20;;;;;;;6.07;2.85;;;;;;;;;;5034391;28;20081;-67
2021/12/26 09:11:46;;;;;;;6.68;2.75;;;;;;;;;;5033061;28;20045;-67
2021/12/26 09:14:12;;;;;;;4.88;2.40;;;;;;;;;;5033295;28;20483;-67
2021/12/26 09:16:38;;;;;;;4.10;2.95;;;;;;;;;;5032986;28;20133;-69
2021/12/26 09:19:04;;;;;;;6.65;4.15;;;;;;;;;;5032955;28;20033;-69
2021/12/26 09:21:30;;;;;;;5.55;2.95;;;;;;;;;;5032921;28;20496;-67
2021/12/26 09:23:56;;;;;;;4.97;2.70;;;;;;;;;;5033244;28;20127;-68
2021/12/26 09:26:22;;;;;;;4.82;2.78;;;;;;;;;;5032850;28;20068;-68
2021/12/26 09:28:49;;;;;;;4.95;2.90;;;;;;;;;;5016600;28;20145;-69
2021/12/26 09:31:15;;;;;;;5.85;3.15;;;;;;;;;;5032430;28;20496;-67
2021/12/26 09:33:41;;;;;;;4.70;2.97;;;;;;;;;;5032695;28;20077;-67
2021/12/26 09:36:07;;;;;;;7.93;2.90;;;;;;;;;;5032702;28;20084;-67
2021/12/26 09:38:33;;;;;;;6.15;3.25;;;;;;;;;;5034181;28;20041;-68
2021/12/26 09:40:59;;;;;;;8.48;3.83;;;;;;;;;;5033128;28;20064;-70
2021/12/26 09:43:26;;;;;;;4.85;2.85;;;;;;;;;;5032429;28;20034;-69
2021/12/26 09:45:52;;;;;;;9.80;2.97;;;;;;;;;;5033690;28;20172;-67
2021/12/26 09:48:19;;;;;;;5.25;2.90;;;;;;;;;;5032018;28;20045;-67
2021/12/26 09:50:46;;;;;;;5.60;3.17;;;;;;;;;;5032288;28;20150;-66
2021/12/26 09:53:12;;;;;;;5.07;2.80;;;;;;;;;;5032714;28;20096;-69
2021/12/26 09:55:38;;;;;;;6.82;3.17;;;;;;;;;;5033607;28;20041;-67
2021/12/26 09:58:04;;;;;;;5.65;2.65;;;;;;;;;;5033611;28;20037;-67
2021/12/26 10:00:38;;;;;;;5.43;2.22;;;;;;;;;;5032015;28;20516;-67
2021/12/26 10:03:25;;;;;;;4.60;3.15;;;;;;;;;;5032191;28;20043;-68
2021/12/26 10:06:00;;;;;;;8.32;3.10;;;;;;;;;;5032551;28;20081;-68
2021/12/26 10:08:26;;;;;;;6.50;2.92;;;;;;;;;;5032088;28;20099;-66
2021/12/26 10:11:27;;;;;;;4.93;2.63;;;;;;;;;;5032935;28;20508;-67
2021/12/26 10:13:56;;;;;;;6.95;3.13;;;;;;;;;;4956096;28;20061;-66
2021/12/26 10:16:24;;;;;;;5.95;3.40;;;;;;;;;;5022127;28;20054;-66
2021/12/26 10:18:50;;;;;;;4.03;2.45;;;;;;;;;;5031789;28;20045;-67
2021/12/26 10:21:25;;;;;;;4.35;2.75;;;;;;;;;;5030868;28;20464;-67
2021/12/26 10:23:52;;;;;;;6.93;3.15;;;-2.30;99.90;;;;;;5032654;28;20029;-66
2021/12/26 10:26:19;;;;;;;5.95;2.95;;;;;;;;;;5031255;28;20037;-67
2021/12/26 10:29:04;;;;;;;8.93;3.40;;;-2.20;99.90;;;;;;5032859;28;20091;-67
2021/12/26 10:31:30;;;;;;;6.18;3.53;;;;;;;;;;5030096;28;20049;-69
2021/12/26 10:33:56;;;;;;;6.82;3.08;;;;;;;;;;5038221;28;20060;-67
2021/12/26 10:36:22;;;;;;;5.78;3.40;;;;;;;;;;5046633;28;20048;-67
2021/12/26 10:39:12;;;;;;;6.30;3.30;;;;;;;;;;5017207;28;20041;-67
2021/12/26 10:41:42;;;;;;;5.15;3.20;;;;;;;;;;5034140;28;20629;-67
2021/12/26 10:44:22;;;;;;;5.75;2.78;;;-1.90;99.90;;;;;;5037841;28;20131;-69
2021/12/26 10:46:52;;;;;;;4.72;2.80;;;;;;;;;;5037836;28;20071;-67
2021/12/26 10:49:29;;;;;;;4.78;3.10;;;;;;;;;;5034849;28;20107;-66
2021/12/26 10:51:55;;;;;;;6.45;3.45;;;;;;;;;;5028096;28;20049;-67
2021/12/26 10:54:25;;;;;;;4.57;3.33;;;;;;;;;;5027993;28;20041;-68
2021/12/26 10:57:05;;;;;;;7.88;3.75;;;;;;;;;;5028861;28;20053;-65
2021/12/26 10:59:31;;;;;;;4.32;3.05;;;;;;;;;;5029092;28;20412;-67
2021/12/26 11:01:57;;;;;;;7.10;3.50;;;;;;;;;;5024348;28;20048;-69
2021/12/26 11:04:26;;;;;;;6.07;3.25;;;;;;;;;;5027043;28;20352;-68
2021/12/26 11:06:58;;;;;;;5.50;3.70;;;;;;;;;;5024273;28;20046;-68
2021/12/26 11:09:24;;;;;;;6.30;3.38;;;;;;;;;;5019155;28;20081;-67
2021/12/26 11:12:00;;;;;;;7.50;3.75;;;;;;;;;;5029168;28;20324;-68
2021/12/26 11:14:26;;;;;;;6.00;4.03;;;;;;;;;;5027141;28;20115;-67
2021/12/26 11:16:52;;;;;;;4.93;3.28;;;;;;;;;;5030325;28;20037;-66
2021/12/26 11:19:38;;;;;;;7.38;4.55;;;;;;;;;;5030829;28;20059;-67
2021/12/26 11:22:04;;;;;;;5.80;3.35;;;;;;;;;;5029169;28;20526;-68
2021/12/26 11:24:30;;;;;;;5.65;3.38;;;;;;;;;;5033817;28;20037;-67
2021/12/26 11:26:56;;;;;;;7.10;3.13;;;;;;;;;;5039882;28;20036;-67
2021/12/26 11:29:22;;;;;;;10.30;3.75;;;;;;;;;;5032556;28;20056;-68
2021/12/26 11:31:50;;;;;;;5.18;3.45;;;;;;;;;;5027494;28;20045;-67
2021/12/26 11:34:17;;;;;;;4.93;3.35;;;;;;;;;;5027514;28;20111;-67
2021/12/26 11:36:43;;;;;;;5.85;3.97;;;;;;;;;;5028592;28;20041;-67
2021/12/26 11:39:09;;;;;;;4.57;3.47;;;;;;;;;;5010430;28;20041;-66
2021/12/26 11:41:45;;;;;;;4.15;3.20;;;;;;;;;;5028688;28;20040;-67
2021/12/26 11:44:19;;;;;;;5.97;3.60;;;;;;;;;;5041815;28;20029;-67
2021/12/26 11:46:54;;;;;;;5.95;3.10;;;;;;;;;;5028323;28;20041;-68
2021/12/26 11:49:34;;;;;;;4.68;3.05;;;;;;;;;;5025222;28;20464;-68
2021/12/26 11:52:06;;;;;;;7.30;3.65;;;;;;;;;;5025797;28;20049;-67
2021/12/26 11:54:48;;;;;;;7.88;3.22;;;;;;;;;;5018259;28;20041;-67
2021/12/26 11:57:22;;;;;;;7.43;4.05;;;;;;;;;;5033918;28;20048;-67
2021/12/26 11:59:57;;;;;;;10.38;4.45;;;;;;;;;;5039408;28;20408;-67
2021/12/26 12:02:35;;;;;;;4.22;3.38;;;;;;;;;;5032338;28;20564;-66
2021/12/26 12:05:12;;;;;;;5.05;3.67;;;;;;;;;;5032575;28;20099;-67
2021/12/26 12:07:58;;;;;;;6.40;3.88;;;;;;;;;;5043955;28;20432;-69
2021/12/26 12:10:41;;;;;;;6.22;3.33;;;-1.10;99.90;;;;;;5039026;28;20528;-67
2021/12/26 12:13:09;;;;;;;7.25;4.10;;;;;;;;;;5030374;28;20467;-67
2021/12/26 12:15:50;;;;;;;6.03;3.50;;;;;;;;;;5031819;28;20057;-67
2021/12/26 12:18:18;;;;;;;7.75;3.70;;;;;;;;;;5039784;28;20369;-67
2021/12/26 12:20:45;;;;;;;7.40;4.45;;;;;;;;;;5039291;28;20037;-69
2021/12/26 12:23:13;;;;;;;6.90;3.60;;;;;;;;;;5072227;22;20041;-74
2021/12/26 12:25:49;;;;;;;6.88;3.95;;;;;;;;;;5046839;28;20083;-74
2021/12/26 12:28:16;;;;;;;7.05;4.35;;;-0.80;99.90;;;;;;5032749;28;20041;-74
2021/12/26 12:30:43;;;;;;;5.85;3.92;;;;;;;;;;5032905;28;20056;-75
2021/12/26 12:33:25;;;;;;;6.95;3.95;;;-0.60;99.90;;;;;;5014690;28;20147;-75
2021/12/26 12:35:57;;;;;;;5.53;3.47;;;;;;;;;;5021137;28;20054;-75
2021/12/26 12:38:25;;;;;;;8.05;3.78;;;;;;;;;;5025799;28;20049;-76
2021/12/26 12:40:51;;;;;;;5.97;3.55;;;;;;;;;;5022836;28;20064;-73
2021/12/26 12:43:18;;;;;;;8.55;4.60;;;;;;;;;;5018310;28;20069;-75
2021/12/26 12:45:54;;;;;;;8.38;3.90;;;;;;;;;;5023929;28;20045;-75
2021/12/26 12:48:41;;;;;;;6.80;4.10;;;-0.40;99.90;;;;;;5024144;28;20046;-75
2021/12/26 12:51:16;;;;;;;5.97;3.97;;;;;;;;;;5020707;28;20441;-73
2021/12/26 12:53:44;;;;;;;6.75;4.32;;;;;;;;;;5022106;28;20045;-74
2021/12/26 12:56:33;;;;;;;9.00;4.25;;;;;;;;;;5021155;28;20045;-74
2021/12/26 12:59:15;;;;;;;8.02;4.32;;;;;;;;;;5010168;28;20038;-72
2021/12/26 13:01:43;;;;;;;6.18;3.60;;;-0.50;99.90;;;;;;5011088;28;20425;-75
2021/12/26 13:04:09;;;;;;;5.85;3.55;;;;;;;;;;5011707;28;20532;-74
2021/12/26 13:06:35;;;;;;;7.68;3.53;;;;;;;;;;4993899;28;20473;-74
2021/12/26 13:09:02;;;;;;;5.95;3.78;;;;;;;;;;4993683;28;20052;-74
2021/12/26 13:11:30;;;;;;;6.45;4.15;;;;;;;;;;4993744;28;20053;-73
2021/12/26 13:14:00;;;;;;;6.10;4.32;;;;;;;;;;5010893;28;20073;-74
2021/12/26 13:16:31;;;;;;;10.43;4.07;;;-0.40;99.90;;;;;;5013239;28;20046;-74
2021/12/26 13:19:04;;;;;;;6.45;3.85;;;;;;;;;;5013187;28;20120;-73
2021/12/26 13:21:30;;;;;;;9.68;4.50;;;;;;;;;;5013972;28;20049;-74
2021/12/26 13:23:55;;;;;;;7.05;3.95;;;;;;;;;;5013832;28;20108;-74
2021/12/26 13:26:21;;;;;;;10.07;5.07;;;;;;;;;;5014008;28;20081;-74
2021/12/26 13:28:48;;;;;;;10.43;4.82;;;;;;;;;;5013808;28;20132;-74
2021/12/26 13:31:16;;;;;;;8.43;3.70;;;;;;;;;;5013586;28;20178;-74
2021/12/26 13:33:45;;;;;;;7.40;3.70;;;-0.30;99.90;;;;;;5014555;28;20044;-74
2021/12/26 13:36:20;;;;;;;6.32;4.32;;;;;;;;;;5013614;28;20496;-74
2021/12/26 13:38:48;;;;;;;9.80;4.82;;;-0.50;99.90;;;;;;5013628;28;20085;-75
2021/12/26 13:41:18;;;;;;;8.52;4.65;;;-0.50;99.90;;;;;;5013512;28;20129;-75
2021/12/26 13:43:45;;;;;;;9.57;4.05;;;;;;;;;;5013315;28;20048;-75
2021/12/26 13:46:11;;;;;;;6.88;3.88;;;;;;;;;;5013605;28;20046;-75
2021/12/26 13:48:40;;;;;;;7.60;4.13;;;-0.40;99.90;;;;;;5013367;28;20156;-73
2021/12/26 13:51:19;;;;;;;6.05;3.67;;;-0.50;99.90;;;;;;5013304;28;20042;-75
2021/12/26 13:53:46;;;;;;;7.85;3.78;;;-0.50;99.90;;;;;;5013421;28;20050;-75
2021/12/26 13:56:12;;;;;;;6.68;3.78;;;;;;;;;;4996740;28;20046;-75
2021/12/26 13:58:40;;;;;;;7.35;4.75;;;;;;;;;;5012926;28;20358;-75
2021/12/26 14:01:08;;;;;;;8.07;4.68;;;-0.50;99.90;;;;;;4996566;28;20038;-75
2021/12/26 14:03:38;;;;;;;7.38;4.00;;;;;;;;;;5013366;28;20041;-75
2021/12/26 14:06:04;;;;;;;7.55;4.72;;;;;;;;;;5014275;28;20048;-75
2021/12/26 14:08:30;;;;;;;7.28;4.43;;;;;;;;;;5014104;28;20567;-75
2021/12/26 14:10:56;;;;;;;6.15;4.13;;;;;;;;;;5012620;28;20082;-75
2021/12/26 14:13:22;;;;;;;9.27;4.15;;;;;;;;;;5012653;28;20077;-76
2021/12/26 14:15:55;;;;;;;9.80;4.82;;;;;;;;;;4996288;28;20049;-75
2021/12/26 14:18:25;;;;;;;7.68;3.70;;;-0.50;99.90;;;;;;4995949;28;20092;-74
2021/12/26 14:21:00;;;;;;;7.70;4.47;;;-0.50;99.90;;;;;;5012307;28;20048;-74
2021/12/26 14:23:40;;;;;;;8.32;4.80;;;-0.60;99.90;;;;;;5012412;28;20121;-75
2021/12/26 14:26:12;;;;;;;7.38;4.35;;;-0.60;99.90;;;;;;5012497;28;20056;-74
2021/12/26 14:28:39;;;;;;;6.50;4.40;;;;;;;;;;5011977;28;20042;-74
2021/12/26 14:31:05;;;;;;;7.50;4.40;;;;;;;;;;5012359;28;20042;-75
2021/12/26 14:33:46;;;;;;;8.02;4.43;;;-0.60;99.90;;;;;;5012235;28;20048;-75
2021/12/26 14:36:12;;;;;;;9.60;5.15;;;;;;;;;;5012508;28;20448;-75